Time;durP1;ratioP1;P1;durP2;ratioP2;P2;SDS_P1;SDS_P2;PMS_P1;PMS_P2;Temp;Humidity;BMP_temperature;BMP_pressure;BME280_temperature;BME280_humidity;BME280_pressure;Samples;Min_cycle;Max_cycle;Signal;HPM_P1;HPM_P2
2021/12/17 00:00:44;;;;;;;35.08;11.90;;;;;;;;;;5079191;28;20083;-73
2021/12/17 00:03:17;;;;;;;38.35;12.60;;;;;;;;;;5096495;28;20040;-74
2021/12/17 00:08:16;;;;;;;31.67;10.75;;;;;;;;;;5096375;28;20127;-73
2021/12/17 00:10:43;;;;;;;31.23;10.25;;;;;;;;;;5080454;28;20511;-74
2021/12/17 00:13:09;;;;;;;27.80;9.30;;;;;;;;;;5081248;28;20029;-73
2021/12/17 00:15:36;;;;;;;28.65;9.18;;;;;;;;;;5079321;28;20123;-74
2021/12/17 00:18:10;;;;;;;29.83;11.05;;;;;;;;;;5080636;28;20048;-74
2021/12/17 00:48:24;;;;;;;28.60;9.93;;;;;;;;;;5087625;28;20036;-74
2021/12/17 00:51:36;;;;;;;27.40;9.90;;;;;;;;;;5064090;28;20055;-73
2021/12/17 00:53:50;;;;;;;26.27;9.05;;;;;;;;;;5080384;28;20130;-74
2021/12/17 00:56:16;;;;;;;28.70;10.10;;;;;;;;;;5080583;28;20044;-74
2021/12/17 00:58:42;;;;;;;26.98;9.57;;;;;;;;;;5078966;28;20040;-74
2021/12/17 01:01:08;;;;;;;21.13;8.32;;;;;;;;;;5078960;28;20060;-74
2021/12/17 01:03:34;;;;;;;26.08;8.00;;;;;;;;;;5080683;28;20039;-74
2021/12/17 01:06:01;;;;;;;29.23;9.65;;;;;;;;;;5078550;28;20040;-74
2021/12/17 01:08:27;;;;;;;25.77;8.02;;;;;;;;;;5079332;28;20036;-74
2021/12/17 01:10:55;;;;;;;26.00;9.05;;;;;;;;;;5080650;28;21020;-74
2021/12/17 01:13:21;;;;;;;23.98;8.85;;;;;;;;;;5089997;28;20492;-74
2021/12/17 01:15:47;;;;;;;31.02;9.48;;;;;;;;;;5090058;28;20476;-74
2021/12/17 01:18:17;;;;;;;25.88;9.00;;;;;;;;;;5089857;28;20044;-74
2021/12/17 01:21:08;;;;;;;25.17;8.68;;;;;;;;;;5090018;28;20051;-74
2021/12/17 01:36:58;;;;;;;35.15;12.43;;;;;;;;;;5106739;28;20059;-74
2021/12/17 01:42:06;;;;;;;36.92;12.82;;;;;;;;;;5106488;28;20135;-74
2021/12/17 01:44:33;;;;;;;42.47;14.43;;;;;;;;;;5089856;28;20044;-75
2021/12/17 01:46:59;;;;;;;29.95;10.18;;;;;;;;;;5089547;28;20071;-75
2021/12/17 02:00:19;;;;;;;26.50;9.02;;;;;;;;;;5106537;28;20052;-75
2021/12/17 02:02:46;;;;;;;22.30;7.70;;;;;;;;;;5089358;28;20040;-75
2021/12/17 02:05:13;;;;;;;22.85;8.10;;;;;;;;;;5089305;28;20043;-74
2021/12/17 02:07:40;;;;;;;22.20;8.20;;;;;;;;;;5089880;28;20177;-75
2021/12/17 02:31:27;;;;;;;24.17;7.07;;;;;;;;;;5109806;28;20040;-75
2021/12/17 02:33:54;;;;;;;19.70;6.78;;;;;;;;;;5092650;28;20044;-75
2021/12/17 02:36:24;;;;;;;20.00;6.95;;;;;;;;;;5092655;28;20044;-75
2021/12/17 02:38:51;;;;;;;17.77;6.00;;;;;;;;;;5092636;28;20054;-75
2021/12/17 02:46:47;;;;;;;18.00;6.47;;;;;;;;;;5109142;28;20040;-75
2021/12/17 02:49:13;;;;;;;14.20;5.50;;;;;;;;;;5092199;28;20042;-75
2021/12/17 02:51:40;;;;;;;16.33;5.47;;;;;;;;;;5092500;28;20448;-75
2021/12/17 02:54:06;;;;;;;13.82;5.13;;;;;;;;;;5092224;28;20039;-75
2021/12/17 02:56:32;;;;;;;18.98;5.65;;;;;;;;;;5092124;28;20480;-75
2021/12/17 02:58:59;;;;;;;15.07;5.45;;;;;;;;;;5092354;28;20082;-75
2021/12/17 03:01:25;;;;;;;14.10;6.30;;;;;;;;;;5091870;28;20044;-75
2021/12/17 03:03:52;;;;;;;14.48;5.03;;;;;;;;;;5091960;28;20048;-75
2021/12/17 03:06:20;;;;;;;11.55;5.32;;;;;;;;;;5092135;28;20137;-75
2021/12/17 03:08:47;;;;;;;17.50;4.82;;;;;;;;;;5091961;28;20420;-75
2021/12/17 03:11:13;;;;;;;12.90;4.75;;;;;;;;;;5091856;28;20039;-75
2021/12/17 03:13:40;;;;;;;12.35;5.30;;;;;;;;;;5092073;28;20040;-75
2021/12/17 03:16:26;;;;;;;14.27;4.80;;;;;;;;;;5091964;28;20047;-75
2021/12/17 03:19:07;;;;;;;15.35;5.70;;;;;;;;;;5091844;28;20043;-75
2021/12/17 03:24:20;;;;;;;13.25;5.15;;;;;;;;;;5108603;28;20151;-74
2021/12/17 03:26:46;;;;;;;12.63;4.97;;;;;;;;;;5091418;28;20058;-75
2021/12/17 03:29:13;;;;;;;13.25;4.25;;;;;;;;;;5091504;28;20143;-75
2021/12/17 03:31:39;;;;;;;11.98;4.57;;;;;;;;;;5091557;28;20044;-75
2021/12/17 03:34:17;;;;;;;9.25;4.40;;;;;;;;;;5091441;28;20036;-75
2021/12/17 03:36:44;;;;;;;13.93;4.22;;;;;;;;;;5091714;28;20051;-75
2021/12/17 03:39:10;;;;;;;15.68;5.55;;;;;;;;;;5091540;28;20040;-75
2021/12/17 03:41:38;;;;;;;12.70;4.38;;;;;;;;;;5091073;28;20052;-75
2021/12/17 03:44:05;;;;;;;11.70;4.82;;;;;;;;;;5091825;28;20047;-75
2021/12/17 03:46:32;;;;;;;12.43;5.35;;;;;;;;;;5091019;28;20240;-75
2021/12/17 03:48:58;;;;;;;13.95;5.43;;;;;;;;;;5091249;28;20032;-74
2021/12/17 03:51:24;;;;;;;19.40;6.35;;;;;;;;;;5091130;28;20046;-74
2021/12/17 03:53:55;;;;;;;14.50;7.10;;;;;;;;;;5091342;28;20077;-74
2021/12/17 03:56:21;;;;;;;19.17;7.28;;;;;;;;;;5090963;28;20054;-74
2021/12/17 03:58:49;;;;;;;18.90;6.82;;;;;;;;;;5091211;28;20040;-74
2021/12/17 04:01:15;;;;;;;19.35;6.97;;;;;;;;;;5090559;28;20056;-74
2021/12/17 04:03:41;;;;;;;18.52;6.68;;;;;;;;;;5090928;28;20044;-74
2021/12/17 04:06:07;;;;;;;22.30;7.65;;;;;;;;;;5091038;28;20058;-74
2021/12/17 04:08:33;;;;;;;20.55;6.50;;;;;;;;;;5090963;28;20619;-74
2021/12/17 04:11:05;;;;;;;16.48;6.32;;;;;;;;;;5090964;28;20044;-75
2021/12/17 04:13:35;;;;;;;19.35;7.53;;;;;;;;;;5091006;28;20063;-74
2021/12/17 04:16:09;;;;;;;20.45;7.45;;;;;;;;;;5090919;28;20135;-74
2021/12/17 04:18:36;;;;;;;17.40;7.25;;;;;;;;;;5090659;28;20052;-74
2021/12/17 04:21:05;;;;;;;19.95;6.85;;;;;;;;;;5090447;28;20047;-74
2021/12/17 04:23:33;;;;;;;14.77;6.05;;;;;;;;;;5090645;28;20032;-74
2021/12/17 04:26:00;;;;;;;15.05;5.60;;;;;;;;;;5090599;28;20144;-74
2021/12/17 04:28:25;;;;;;;14.32;5.78;;;;;;;;;;5090417;28;20074;-74
2021/12/17 04:30:51;;;;;;;15.02;5.30;;;;;;;;;;5090251;28;20509;-74
2021/12/17 04:33:18;;;;;;;14.10;5.78;;;;;;;;;;5090477;28;20036;-75
2021/12/17 04:35:44;;;;;;;17.77;5.85;;;;;;;;;;5090411;28;20221;-75
2021/12/17 04:38:11;;;;;;;10.65;4.88;;;;;;;;;;5090380;28;20043;-74
2021/12/17 04:40:41;;;;;;;15.15;5.15;;;;;;;;;;5090117;28;20066;-74
2021/12/17 04:43:21;;;;;;;12.07;5.07;;;;;;;;;;5090315;28;20448;-75
2021/12/17 04:45:59;;;;;;;13.23;4.65;;;;;;;;;;5090436;28;20412;-75
2021/12/17 04:59:23;;;;;;;15.38;4.45;;;;;;;;;;5107312;28;20483;-74
2021/12/17 05:01:49;;;;;;;9.93;4.22;;;;;;;;;;5089851;28;20056;-75
2021/12/17 05:04:15;;;;;;;9.65;4.20;;;;;;;;;;5089849;28;20039;-74
2021/12/17 05:06:41;;;;;;;9.40;4.10;;;;;;;;;;5090061;28;20464;-74
2021/12/17 05:09:17;;;;;;;11.35;4.30;;;;;;;;;;5089954;28;20047;-74
2021/12/17 05:19:46;;;;;;;8.80;3.90;;;;;;;;;;5106832;28;20052;-74
2021/12/17 05:22:12;;;;;;;9.98;3.60;;;;;;;;;;5089768;28;20126;-74
2021/12/17 05:24:38;;;;;;;9.43;3.45;;;;;;;;;;5089823;28;20036;-74
2021/12/17 05:27:05;;;;;;;13.70;4.80;;;;;;;;;;5089671;28;20108;-74
2021/12/17 05:29:31;;;;;;;12.68;4.93;;;;;;;;;;5089795;28;20032;-74
2021/12/17 05:31:57;;;;;;;10.10;4.18;;;;;;;;;;5089657;28;20399;-74
2021/12/17 05:34:23;;;;;;;11.15;4.05;;;;;;;;;;5089604;28;20051;-74
2021/12/17 05:36:49;;;;;;;10.40;4.00;;;;;;;;;;5089653;28;20071;-74
2021/12/17 05:39:15;;;;;;;8.65;3.70;;;;;;;;;;5089574;28;20039;-74
2021/12/17 05:41:41;;;;;;;11.73;4.28;;;;;;;;;;5089555;28;20036;-74
2021/12/17 05:44:07;;;;;;;7.97;3.70;;;;;;;;;;5092842;28;20039;-74
2021/12/17 05:46:49;;;;;;;15.27;4.45;;;;;;;;;;5093688;28;20032;-74
2021/12/17 05:49:16;;;;;;;11.50;4.20;;;;;;;;;;5093407;28;20039;-74
2021/12/17 05:51:42;;;;;;;9.73;4.32;;;;;;;;;;5093783;28;20044;-74
2021/12/17 05:54:08;;;;;;;11.77;4.22;;;;;;;;;;5093366;28;20044;-73
2021/12/17 05:56:34;;;;;;;14.40;4.13;;;;;;;;;;5093233;28;20036;-74
2021/12/17 05:59:00;;;;;;;9.90;4.25;;;;;;;;;;5093223;28;20048;-74
2021/12/17 06:01:26;;;;;;;7.65;4.05;;;;;;;;;;5092935;28;20090;-74
2021/12/17 06:03:52;;;;;;;8.45;3.78;;;;;;;;;;5093392;28;20040;-73
2021/12/17 06:06:31;;;;;;;13.38;4.20;;;;;;;;;;5093064;28;20043;-74
2021/12/17 06:08:57;;;;;;;9.23;3.72;;;;;;;;;;5093141;28;20123;-73
2021/12/17 06:11:24;;;;;;;11.15;4.60;;;;;;;;;;5093115;28;20044;-74
2021/12/17 06:13:49;;;;;;;8.73;3.90;;;;;;;;;;5092964;28;20043;-74
2021/12/17 06:16:15;;;;;;;10.95;4.53;;;;;;;;;;5092868;28;20403;-74
2021/12/17 06:18:41;;;;;;;8.15;4.28;;;;;;;;;;5093152;28;20036;-74
2021/12/17 06:21:07;;;;;;;8.45;3.72;;;;;;;;;;5092754;28;20064;-74
2021/12/17 06:23:33;;;;;;;9.85;3.58;;;;;;;;;;5092795;28;20044;-73
2021/12/17 06:25:59;;;;;;;10.48;4.53;;;;;;;;;;5092796;28;20127;-74
2021/12/17 06:28:25;;;;;;;9.77;4.25;;;;;;;;;;5092951;28;20395;-74
2021/12/17 06:30:51;;;;;;;9.40;5.10;;;;;;;;;;5093352;28;20377;-74
2021/12/17 06:33:17;;;;;;;11.35;4.10;;;;;;;;;;5093067;28;20040;-74
2021/12/17 06:35:43;;;;;;;9.52;3.90;;;;;;;;;;5092964;28;20044;-74
2021/12/17 06:38:09;;;;;;;8.05;4.30;;;;;;;;;;5092446;28;20052;-74
2021/12/17 06:40:35;;;;;;;11.50;4.68;;;;;;;;;;5092519;28;20040;-73
2021/12/17 06:43:01;;;;;;;10.38;4.18;;;;;;;;;;5092464;28;20086;-74
2021/12/17 06:45:50;;;;;;;11.25;4.13;;;;;;;;;;5092163;28;20040;-74
2021/12/17 06:48:21;;;;;;;9.27;4.35;;;;;;;;;;5092286;28;20042;-74
2021/12/17 06:56:58;;;;;;;11.35;4.50;;;;;;;;;;5109627;28;20052;-74
2021/12/17 07:10:17;;;;;;;11.95;5.40;;;;;;;;;;5088911;28;20033;-74
2021/12/17 07:21:03;;;;;;;10.45;5.22;;;;;;;;;;5071889;28;20048;-73
2021/12/17 07:34:01;;;;;;;13.75;5.38;;;;;;;;;;5071387;28;20068;-74
2021/12/17 07:36:39;;;;;;;15.07;6.68;;;;;;;;;;5088324;28;20049;-74
2021/12/17 07:39:06;;;;;;;12.13;5.15;;;;;;;;;;5088300;28;20048;-72
2021/12/17 07:41:32;;;;;;;12.02;5.75;;;;;;;;;;5054318;28;20479;-74
2021/12/17 07:44:00;;;;;;;15.48;5.80;;;;;;;;;;5054619;28;20141;-73
2021/12/17 07:46:26;;;;;;;11.95;5.18;;;;;;;;;;5087699;28;20037;-74
2021/12/17 07:48:52;;;;;;;14.30;6.65;;;;;;;;;;5071110;28;20024;-74
2021/12/17 07:51:19;;;;;;;12.82;5.82;;;;;;;;;;5070874;28;20036;-74
2021/12/17 07:53:46;;;;;;;15.75;5.10;;;;;;;;;;5054215;28;20380;-74
2021/12/17 07:56:14;;;;;;;14.82;5.80;;;;;;;;;;5070857;28;20052;-73
2021/12/17 07:58:40;;;;;;;14.05;5.53;;;;;;;;;;5054533;28;20127;-72
2021/12/17 08:01:08;;;;;;;17.08;6.80;;;;;;;;;;5053919;28;20049;-74
2021/12/17 08:03:34;;;;;;;15.27;6.60;;;;;;;;;;5070887;28;20037;-74
2021/12/17 08:06:00;;;;;;;12.82;5.05;;;;;;;;;;5069982;28;20541;-74
2021/12/17 08:08:27;;;;;;;11.75;5.63;;;;;;;;;;5070418;28;20067;-74
2021/12/17 08:10:53;;;;;;;12.82;5.55;;;;;;;;;;5070570;28;20041;-74
2021/12/17 08:13:25;;;;;;;12.05;5.10;;;;;;;;;;5070723;28;20515;-73
2021/12/17 08:31:25;;;;;;;11.77;5.60;;;;;;;;;;5087435;28;20056;-73
2021/12/17 08:33:53;;;;;;;14.55;5.25;;;;;;;;;;5070276;28;20048;-73
2021/12/17 08:36:19;;;;;;;15.48;6.40;;;;;;;;;;5070224;28;20036;-73
2021/12/17 08:38:46;;;;;;;15.80;6.38;;;;;;;;;;5070487;28;20139;-73
2021/12/17 08:41:12;;;;;;;15.27;6.05;;;;;;;;;;5070145;28;20044;-73
2021/12/17 08:43:39;;;;;;;12.60;5.88;;;;;;;;;;5070353;28;20047;-73
2021/12/17 08:46:05;;;;;;;16.90;6.15;;;;;;;;;;5070393;28;20067;-73
2021/12/17 08:48:31;;;;;;;13.80;6.35;;;;;;;;;;5068694;28;20075;-73
2021/12/17 08:50:58;;;;;;;11.90;5.90;;;;;;;;;;5066443;28;20171;-73
2021/12/17 08:53:24;;;;;;;11.27;5.07;;;;;;;;;;5066012;28;20097;-73
2021/12/17 08:55:50;;;;;;;14.93;6.25;;;;;;;;;;5066296;28;20055;-74
2021/12/17 08:58:16;;;;;;;13.90;5.88;;;;;;;;;;5066486;28;20044;-73
2021/12/17 09:00:42;;;;;;;13.27;5.60;;;;;;;;;;5066117;28;20519;-73
2021/12/17 09:03:10;;;;;;;15.23;6.20;;;;;;;;;;5066275;28;20075;-73
2021/12/17 09:05:40;;;;;;;14.38;6.35;;;;;;;;;;5065961;28;20101;-73
2021/12/17 09:08:06;;;;;;;14.17;5.80;;;;;;;;;;5066007;28;20488;-73
2021/12/17 09:10:33;;;;;;;18.38;7.47;;;;;;;;;;5066305;28;20044;-73
2021/12/17 09:12:59;;;;;;;18.58;6.18;;;;;;;;;;5066076;28;20041;-73
2021/12/17 09:15:26;;;;;;;13.50;5.47;;;;;;;;;;5066510;28;20566;-73
2021/12/17 09:17:52;;;;;;;15.85;6.43;;;;;;;;;;5069234;28;20036;-73
2021/12/17 09:20:18;;;;;;;14.65;6.63;;;;;;;;;;5070005;28;20037;-73
2021/12/17 09:22:44;;;;;;;14.95;6.35;;;;;;;;;;5070381;28;20051;-73
2021/12/17 09:25:11;;;;;;;11.25;5.03;;;;;;;;;;5070345;28;20044;-73
2021/12/17 09:27:37;;;;;;;15.90;6.47;;;;;;;;;;5070285;28;20400;-73
2021/12/17 09:30:07;;;;;;;14.60;6.20;;;;;;;;;;5069813;28;20400;-73
2021/12/17 09:32:33;;;;;;;16.90;6.65;;;;;;;;;;5077417;28;20136;-73
2021/12/17 09:34:59;;;;;;;13.00;6.30;;;;;;;;;;5090404;28;20047;-73
2021/12/17 09:37:25;;;;;;;12.93;6.03;;;;;;;;;;5090154;28;20044;-73
2021/12/17 09:39:51;;;;;;;14.88;6.32;;;;;;;;;;5090066;28;20036;-73
2021/12/17 09:42:17;;;;;;;14.95;7.13;;;;;;;;;;5089493;28;20197;-73
2021/12/17 09:44:43;;;;;;;13.93;5.95;;;;;;;;;;5090138;28;20408;-73
2021/12/17 09:47:09;;;;;;;17.83;7.05;;;;;;;;;;5089993;28;20040;-74
2021/12/17 09:49:35;;;;;;;15.73;7.13;;;;;;;;;;5090076;28;20400;-73
2021/12/17 09:52:01;;;;;;;14.25;6.70;;;;;;;;;;5089825;28;20048;-74
2021/12/17 09:54:27;;;;;;;14.20;6.43;;;;;;;;;;5089692;28;20069;-73
2021/12/17 09:56:53;;;;;;;13.15;6.07;;;;;;;;;;5089938;28;20040;-73
2021/12/17 09:59:19;;;;;;;13.15;6.40;;;;;;;;;;5090118;28;20050;-73
2021/12/17 10:01:46;;;;;;;16.55;7.43;;;;;;;;;;5089609;28;20054;-74
2021/12/17 10:04:12;;;;;;;19.52;6.85;;;;;;;;;;5089587;28;20101;-74
2021/12/17 10:06:38;;;;;;;15.48;7.18;;;;;;;;;;5089815;28;20040;-74
2021/12/17 10:09:04;;;;;;;15.15;6.72;;;;;;;;;;5089522;28;20040;-74
2021/12/17 10:11:30;;;;;;;18.90;8.98;;;;;;;;;;5089533;28;20487;-73
2021/12/17 10:13:56;;;;;;;15.70;6.35;;;;;;;;;;5089924;28;20040;-73
2021/12/17 10:16:22;;;;;;;14.65;6.45;;;;;;;;;;5089620;28;20131;-73
2021/12/17 10:18:50;;;;;;;13.40;5.82;;;;;;;;;;5089070;28;20131;-73
2021/12/17 10:21:20;;;;;;;19.48;6.30;;;;;;;;;;5089137;28;20079;-73
2021/12/17 10:23:47;;;;;;;14.13;5.85;;;;;;;;;;5089679;28;20267;-73
2021/12/17 10:26:14;;;;;;;11.18;5.43;;;;;;;;;;5089201;28;20119;-73
2021/12/17 10:29:00;;;;;;;12.85;6.45;;;;;;;;;;5088410;28;20424;-74
2021/12/17 10:31:27;;;;;;;12.30;5.43;;;;;;;;;;5088724;28;20075;-72
2021/12/17 10:33:54;;;;;;;14.55;6.07;;;;;;;;;;5089075;28;20075;-74
2021/12/17 10:36:35;;;;;;;14.18;5.97;;;;;;;;;;5088989;28;20051;-73
2021/12/17 10:39:12;;;;;;;14.95;7.00;;;;;;;;;;5089217;28;20589;-73
2021/12/17 10:41:47;;;;;;;13.10;6.00;;;;;;;;;;5088689;28;20093;-74
2021/12/17 10:44:13;;;;;;;11.23;5.57;;;;;;;;;;5088934;28;20040;-73
2021/12/17 10:46:56;;;;;;;17.27;6.22;;;;;;;;;;5088676;28;20088;-73
2021/12/17 10:49:26;;;;;;;18.73;6.50;;;;;;;;;;5077231;28;20068;-73
2021/12/17 10:52:01;;;;;;;9.85;5.45;;;;;;;;;;5076295;28;20040;-73
2021/12/17 10:54:28;;;;;;;11.65;4.63;;;;;;;;;;5098611;28;20035;-73
2021/12/17 10:56:55;;;;;;;11.90;5.13;;;;;;;;;;5088751;28;20048;-73
2021/12/17 10:59:22;;;;;;;9.65;4.47;;;;;;;;;;5088696;28;20185;-74
2021/12/17 11:01:54;;;;;;;13.38;5.65;;;;;;;;;;5088325;28;20063;-74
2021/12/17 11:04:24;;;;;;;12.90;5.25;;;;;;;;;;5088770;28;20028;-74
2021/12/17 11:06:58;;;;;;;11.50;4.88;;;;;;;;;;5088618;28;20044;-74
2021/12/17 11:09:44;;;;;;;13.10;4.88;;;;;;;;;;5088310;28;20455;-74
2021/12/17 11:12:17;;;;;;;12.57;4.85;;;;;;;;;;5058014;28;20044;-74
2021/12/17 11:14:44;;;;;;;10.85;4.90;;;;;;;;;;5088396;28;20119;-73
2021/12/17 11:17:14;;;;;;;12.60;4.93;;;;;;;;;;5088543;28;20040;-74
2021/12/17 11:19:40;;;;;;;14.13;5.18;;;;;;;;;;5088422;28;20130;-74
2021/12/17 11:22:07;;;;;;;12.02;4.65;;;;;;;;;;5088211;28;20043;-74
2021/12/17 11:24:34;;;;;;;14.45;5.72;;;;;;;;;;5088428;28;20051;-74
2021/12/17 11:27:01;;;;;;;10.88;4.18;;;;;;;;;;5088050;28;20051;-74
2021/12/17 11:29:27;;;;;;;12.40;5.35;;;;;;;;;;5087784;28;20043;-74
2021/12/17 11:31:54;;;;;;;14.10;4.97;;;;;;;;;;5088190;28;20036;-74
2021/12/17 11:34:20;;;;;;;10.25;4.85;;;;;;;;;;5087869;28;20128;-74
2021/12/17 11:36:47;;;;;;;9.15;4.78;;;;;;;;;;5088236;28;20483;-74
2021/12/17 11:39:27;;;;;;;11.23;4.72;;;;;;;;;;5088051;28;20079;-74
2021/12/17 11:41:56;;;;;;;8.35;3.10;;;;;;;;;;5086247;28;20059;-75
2021/12/17 11:44:28;;;;;;;8.77;3.67;;;;;;;;;;5087563;28;20043;-75
2021/12/17 11:47:01;;;;;;;9.73;3.97;;;;;;;;;;5087511;28;20162;-75
2021/12/17 11:49:33;;;;;;;8.65;4.18;;;;;;;;;;5087657;28;20046;-75
2021/12/17 11:52:00;;;;;;;3.05;2.08;;;;;;;;;;5088357;28;20082;-75
2021/12/17 11:54:34;;;;;;;5.68;2.75;;;;;;;;;;5087551;28;20044;-75
2021/12/17 11:57:17;;;;;;;5.28;2.25;;;;;;;;;;5087760;28;20047;-75
2021/12/17 11:59:44;;;;;;;5.60;2.28;;;;;;;;;;5087860;28;20146;-75
2021/12/17 12:02:12;;;;;;;4.43;2.20;;;;;;;;;;5087763;28;20062;-76
2021/12/17 12:04:46;;;;;;;4.68;2.20;;;;;;;;;;5088298;28;20046;-75
2021/12/17 12:07:14;;;;;;;2.72;1.92;;;;;;;;;;5087298;28;20042;-76
2021/12/17 12:09:59;;;;;;;5.30;2.53;;;;;;;;;;5087497;28;20039;-75
2021/12/17 12:12:27;;;;;;;1.70;0.98;;;;;;;;;;5087532;28;20044;-75
2021/12/17 12:14:53;;;;;;;1.98;0.90;;;;;;;;;;5087725;28;20059;-74
2021/12/17 12:17:38;;;;;;;2.35;1.13;;;;;;;;;;5087082;28;20438;-75
2021/12/17 12:20:04;;;;;;;3.47;1.75;;;;;;;;;;5087863;28;20048;-75
2021/12/17 12:22:31;;;;;;;4.47;2.13;;;;;;;;;;5087262;28;20139;-75
2021/12/17 12:25:23;;;;;;;5.45;2.67;;;;;;;;;;5088028;28;20480;-74
2021/12/17 12:27:49;;;;;;;4.93;2.33;;;;;;;;;;5087093;28;20036;-75
2021/12/17 12:30:15;;;;;;;3.95;2.00;;;;;;;;;;5086876;28;20044;-75
2021/12/17 12:33:10;;;;;;;2.85;1.40;;;;;;;;;;5087392;28;20415;-75
2021/12/17 12:35:37;;;;;;;3.65;1.88;;;;;;;;;;5053722;28;20112;-74
2021/12/17 12:38:16;;;;;;;5.50;2.28;;;;;;;;;;5087106;28;20129;-75
2021/12/17 12:40:46;;;;;;;5.35;2.08;;;;;;;;;;5086979;28;20559;-74
2021/12/17 12:43:26;;;;;;;3.25;1.95;;;;;;;;;;5085086;28;20609;-74
2021/12/17 12:45:52;;;;;;;5.07;2.38;;;;;;;;;;5086535;28;20036;-75
2021/12/17 12:48:28;;;;;;;3.28;1.80;;;;;;;;;;5086783;28;20123;-75
2021/12/17 12:51:13;;;;;;;4.10;1.95;;;;;;;;;;5086931;28;20424;-74
2021/12/17 12:53:45;;;;;;;4.15;1.60;;;;;;;;;;5086633;28;20044;-75
2021/12/17 12:56:15;;;;;;;4.30;1.73;;;;;;;;;;5086267;28;20048;-74
2021/12/17 12:58:46;;;;;;;3.55;1.48;;;;;;;;;;5087110;28;20048;-75
2021/12/17 13:01:13;;;;;;;;;;;;;;;;;;5086920;28;20060;-74
2021/12/17 13:03:41;;;;;;;4.10;1.80;;;;;;;;;;5086693;28;19923;-75
2021/12/17 13:06:15;;;;;;;5.93;2.53;;;;;;;;;;5086855;28;20063;-74
2021/12/17 13:08:41;;;;;;;5.68;2.40;;;;;;;;;;5086938;28;20079;-72
2021/12/17 13:11:07;;;;;;;4.65;2.25;;;;;;;;;;5086879;28;20054;-74
2021/12/17 13:13:52;;;;;;;5.90;2.65;;;;;;;;;;5086758;28;20054;-75
2021/12/17 13:16:22;;;;;;;5.47;2.45;;;;;;;;;;5086713;28;20173;-74
2021/12/17 13:21:58;;;;;;;2.85;1.77;;;;;;;;;;5103467;28;20079;-75
2021/12/17 13:24:25;;;;;;;2.95;1.80;;;;;;;;;;5086746;28;20036;-74
2021/12/17 13:26:56;;;;;;;4.18;1.90;;;;;;;;;;5086506;28;20483;-75
2021/12/17 13:29:24;;;;;;;2.78;1.13;;;;;;;;;;5089658;28;20044;-74
2021/12/17 13:31:57;;;;;;;2.15;1.10;;;;;;;;;;5090101;28;20067;-75
2021/12/17 13:34:23;;;;;;;2.42;1.55;;;;;;;;;;5090401;28;20040;-74
2021/12/17 13:36:51;;;;;;;2.95;1.70;;;;;;;;;;5089931;28;20051;-74
2021/12/17 13:39:17;;;;;;;4.10;1.83;;;;;;;;;;5089916;28;20173;-73
2021/12/17 13:41:44;;;;;;;3.97;2.40;;;;;;;;;;5088506;28;20044;-75
2021/12/17 13:44:32;;;;;;;5.50;2.92;;;;;;;;;;5072938;28;20048;-75
2021/12/17 13:47:19;;;;;;;12.25;3.42;;;;;;;;;;5089849;28;20484;-74
2021/12/17 13:50:12;;;;;;;3.75;1.98;;;;;;;;;;5090098;28;20504;-75
2021/12/17 13:52:58;;;;;;;4.05;2.40;;;;;;;;;;5069236;28;20052;-75
2021/12/17 13:55:27;;;;;;;3.85;2.08;;;;;;;;;;5073362;28;20083;-74
2021/12/17 13:57:53;;;;;;;4.55;2.22;;;;;;;;;;5089611;28;20499;-74
2021/12/17 14:00:20;;;;;;;6.18;3.42;;;;;;;;;;5072926;28;20056;-74
2021/12/17 14:02:46;;;;;;;4.60;2.70;;;;;;;;;;5089756;28;20472;-74
2021/12/17 14:05:25;;;;;;;8.07;3.30;;;;;;;;;;5092729;28;20110;-75
2021/12/17 14:07:51;;;;;;;6.95;3.10;;;;;;;;;;5093315;28;20051;-74
2021/12/17 14:10:22;;;;;;;6.03;3.60;;;;;;;;;;5093577;28;20088;-74
2021/12/17 14:12:48;;;;;;;7.63;3.45;;;;;;;;;;5076578;28;20495;-74
2021/12/17 14:15:19;;;;;;;6.65;3.78;;;;;;;;;;5093319;28;20031;-74
2021/12/17 14:17:48;;;;;;;7.50;3.80;;;;;;;;;;5093288;28;20116;-74
2021/12/17 14:20:16;;;;;;;5.82;3.20;;;;;;;;;;5093140;28;20089;-74
2021/12/17 14:22:43;;;;;;;7.60;3.70;;;;;;;;;;5076505;28;20044;-74
2021/12/17 14:25:41;;;;;;;7.57;3.72;;;;;;;;;;5076407;28;20032;-73
2021/12/17 14:28:16;;;;;;;6.93;3.50;;;;;;;;;;5057425;28;20403;-74
2021/12/17 14:31:01;;;;;;;6.25;3.40;;;;;;;;;;5076243;28;20479;-73
2021/12/17 14:33:31;;;;;;;5.65;3.00;;;;;;;;;;5092984;28;20040;-74
2021/12/17 14:35:57;;;;;;;6.47;3.20;;;;;;;;;;5093343;28;20468;-74
2021/12/17 14:38:34;;;;;;;7.80;3.20;;;;;;;;;;5076045;28;20084;-73
2021/12/17 14:41:01;;;;;;;7.20;3.97;;;;;;;;;;5091519;28;20048;-74
2021/12/17 14:43:35;;;;;;;5.30;3.33;;;;;;;;;;5075353;28;20044;-74
2021/12/17 14:48:49;;;;;;;5.70;3.30;;;;;;;;;;5092634;28;20165;-74
2021/12/17 15:04:42;;;;;;;6.78;3.63;;;;;;;;;;5092458;28;20040;-74
2021/12/17 15:07:08;;;;;;;6.45;3.13;;;;;;;;;;5075823;28;20044;-74
2021/12/17 15:09:35;;;;;;;7.82;3.63;;;;;;;;;;5092154;28;20040;-74
2021/12/17 15:12:12;;;;;;;7.85;3.75;;;;;;;;;;5092272;28;20446;-74
2021/12/17 15:14:38;;;;;;;7.25;3.67;;;;;;;;;;5092038;28;20043;-74
2021/12/17 15:17:04;;;;;;;9.30;4.00;;;;;;;;;;5092127;28;20044;-73
2021/12/17 15:19:30;;;;;;;7.82;3.50;;;;;;;;;;5075370;28;20134;-74
2021/12/17 15:21:56;;;;;;;6.90;3.10;;;;;;;;;;5092056;28;20048;-74
2021/12/17 15:24:22;;;;;;;7.90;4.20;;;;;;;;;;5092059;28;20044;-74
2021/12/17 15:26:48;;;;;;;6.07;3.40;;;;;;;;;;5092080;28;20387;-74
2021/12/17 15:29:14;;;;;;;8.70;3.60;;;;;;;;;;5074996;28;20044;-74
2021/12/17 15:31:40;;;;;;;11.15;4.80;;;;;;;;;;5075092;28;20093;-73
2021/12/17 15:34:06;;;;;;;8.13;3.75;;;;;;;;;;5075081;28;20082;-74
2021/12/17 15:36:32;;;;;;;8.02;3.88;;;;;;;;;;5074853;28;20043;-74
2021/12/17 15:38:58;;;;;;;7.50;3.83;;;;;;;;;;5091821;28;20060;-74
2021/12/17 15:41:24;;;;;;;8.82;4.15;;;;;;;;;;5089719;28;20044;-75
2021/12/17 15:43:51;;;;;;;8.05;3.95;;;;;;;;;;5073950;28;20130;-74
2021/12/17 15:46:17;;;;;;;16.80;6.47;;;;;;;;;;5091314;28;20044;-74
2021/12/17 15:48:45;;;;;;;8.38;4.03;;;;;;;;;;5091013;28;20540;-74
2021/12/17 15:51:11;;;;;;;6.35;3.85;;;;;;;;;;5091859;28;20047;-74
2021/12/17 15:53:37;;;;;;;8.23;4.25;;;;;;;;;;5074078;28;20036;-74
2021/12/17 15:56:03;;;;;;;8.85;4.40;;;;;;;;;;5091075;28;20070;-74
2021/12/17 15:58:29;;;;;;;9.85;4.15;;;;;;;;;;5091531;28;20081;-74
2021/12/17 16:00:55;;;;;;;9.40;4.75;;;;;;;;;;5091236;28;20825;-74
2021/12/17 16:03:28;;;;;;;7.57;4.15;;;;;;;;;;5091422;28;20051;-74
2021/12/17 16:05:55;;;;;;;13.45;4.95;;;;;;;;;;5074748;28;20084;-76
2021/12/17 16:08:21;;;;;;;6.72;3.53;;;;;;;;;;5074442;28;20445;-73
2021/12/17 16:21:12;;;;;;;7.72;4.20;;;;;;;;;;5090968;28;20473;-74
2021/12/17 16:23:39;;;;;;;10.70;4.15;;;;;;;;;;5073940;28;20490;-74
2021/12/17 16:26:06;;;;;;;7.85;4.72;;;;;;;;;;5090314;28;20040;-74
2021/12/17 16:28:33;;;;;;;9.55;5.05;;;;;;;;;;5073780;28;20352;-75
2021/12/17 16:31:29;;;;;;;7.22;4.10;;;;;;;;;;5089879;28;20051;-74
2021/12/17 16:33:58;;;;;;;9.57;4.57;;;;;;;;;;5048802;28;20099;-75
2021/12/17 16:36:24;;;;;;;10.00;4.75;;;;;;;;;;5086536;28;20059;-74
2021/12/17 16:38:50;;;;;;;9.00;4.43;;;;;;;;;;5086818;28;20047;-73
2021/12/17 16:41:16;;;;;;;8.90;4.20;;;;;;;;;;5069995;28;20458;-75
2021/12/17 16:43:44;;;;;;;7.47;3.25;;;;;;;;;;5087064;28;20058;-76
2021/12/17 16:46:24;;;;;;;5.72;2.60;;;;;;;;;;5086975;28;20040;-76
2021/12/17 16:48:51;;;;;;;5.40;2.75;;;;;;;;;;5069892;28;20484;-75
2021/12/17 16:51:18;;;;;;;6.47;3.47;;;;;;;;;;5070056;28;20182;-76
2021/12/17 16:53:45;;;;;;;6.75;3.50;;;;;;;;;;5086541;28;20484;-75
2021/12/17 16:56:11;;;;;;;7.85;4.32;;;;;;;;;;5086742;28;20591;-75
2021/12/17 16:58:37;;;;;;;11.52;4.25;;;;;;;;;;5069923;28;20079;-74
2021/12/17 17:01:03;;;;;;;7.03;2.97;;;;;;;;;;5069123;28;20055;-75
2021/12/17 17:03:29;;;;;;;7.15;2.90;;;;;;;;;;5069539;28;20400;-75
2021/12/17 17:05:55;;;;;;;3.47;2.10;;;;;;;;;;5086457;28;20036;-75
2021/12/17 17:08:22;;;;;;;2.90;2.05;;;;;;;;;;5069779;28;20051;-76
2021/12/17 17:10:53;;;;;;;6.43;2.78;;;;;;;;;;5086339;28;20040;-74
2021/12/17 17:13:20;;;;;;;;;;;;;;;;;;5069647;28;20044;-75
2021/12/17 17:15:46;;;;;;;4.95;1.67;;;;;;;;;;5086351;28;19923;-75
2021/12/17 17:18:13;;;;;;;5.35;2.78;;;;;;;;;;5069725;28;20062;-75
2021/12/17 17:20:39;;;;;;;4.70;2.28;;;;;;;;;;5086740;28;20052;-74
2021/12/17 17:23:05;;;;;;;3.47;1.83;;;;;;;;;;5086565;28;20051;-76
2021/12/17 17:25:31;;;;;;;6.75;2.42;;;;;;;;;;5086290;28;20506;-74
2021/12/17 17:27:57;;;;;;;4.10;2.25;;;;;;;;;;5069475;28;20165;-74
2021/12/17 17:30:24;;;;;;;6.13;2.53;;;;;;;;;;5069393;28;20047;-75
2021/12/17 17:32:50;;;;;;;2.55;1.15;;;;;;;;;;5086070;28;20036;-76
2021/12/17 17:35:17;;;;;;;3.50;1.65;;;;;;;;;;5069364;28;20039;-75
2021/12/17 17:37:43;;;;;;;1.98;1.33;;;;;;;;;;5086882;28;20036;-74
2021/12/17 17:40:10;;;;;;;2.70;1.70;;;;;;;;;;5090547;28;20040;-75
2021/12/17 17:42:36;;;;;;;4.25;1.90;;;;;;;;;;5090226;28;20157;-74
2021/12/17 17:45:03;;;;;;;3.67;1.70;;;;;;;;;;5089976;28;20118;-75
2021/12/17 17:47:29;;;;;;;1.83;1.05;;;;;;;;;;5073701;28;20039;-74
2021/12/17 17:49:55;;;;;;;1.35;0.45;;;;;;;;;;5090375;28;20044;-75
2021/12/17 17:52:21;;;;;;;1.40;0.75;;;;;;;;;;5090482;28;20044;-75